Time;durP1;ratioP1;P1;durP2;ratioP2;P2;SDS_P1;SDS_P2;PMS_P1;PMS_P2;Temp;Humidity;BMP_temperature;BMP_pressure;BME280_temperature;BME280_humidity;BME280_pressure;Samples;Min_cycle;Max_cycle;Signal;HPM_P1;HPM_P2
2021/05/03 00:00:56;;;;;;;1.75;1.50;;;8.60;68.80;;;;;;5071910;28;20036;-60
2021/05/03 00:03:21;;;;;;;0.95;0.90;;;8.60;68.80;;;;;;5072972;28;20038;-60
2021/05/03 00:05:55;;;;;;;1.83;0.80;;;8.60;68.70;;;;;;5072864;28;20460;-60
2021/05/03 00:08:21;;;;;;;5.00;1.98;;;8.60;68.60;;;;;;5071331;28;20036;-60
2021/05/03 00:10:47;;;;;;;1.67;1.17;;;8.60;68.60;;;;;;5072584;28;20035;-59
2021/05/03 00:13:12;;;;;;;3.10;1.20;;;8.60;68.40;;;;;;5072652;28;20024;-60
2021/05/03 00:15:38;;;;;;;1.83;1.38;;;8.60;68.40;;;;;;5071925;28;20471;-60
2021/05/03 00:18:04;;;;;;;2.47;1.10;;;8.60;68.30;;;;;;5072778;28;20036;-60
2021/05/03 00:20:30;;;;;;;1.45;1.23;;;8.50;68.10;;;;;;5072689;28;20040;-60
2021/05/03 00:22:55;;;;;;;1.52;1.30;;;8.50;68.20;;;;;;5071715;28;20031;-60
2021/05/03 00:25:21;;;;;;;6.47;2.13;;;8.50;68.20;;;;;;5072705;28;20025;-60
2021/05/03 00:27:49;;;;;;;9.32;2.00;;;8.50;68.40;;;;;;5072240;28;20416;-60
2021/05/03 00:30:16;;;;;;;2.40;1.63;;;8.50;68.70;;;;;;5070603;28;20079;-59
2021/05/03 00:32:42;;;;;;;2.92;1.42;;;8.50;68.70;;;;;;5072237;28;20486;-59
2021/05/03 00:35:09;;;;;;;3.25;1.17;;;8.50;68.60;;;;;;5072564;28;20076;-59
2021/05/03 00:37:34;;;;;;;5.47;1.58;;;8.50;68.40;;;;;;5071892;28;20101;-59
2021/05/03 00:40:00;;;;;;;2.63;1.20;;;8.50;68.30;;;;;;5072321;28;20055;-60
2021/05/03 00:42:26;;;;;;;1.10;0.90;;;8.50;68.20;;;;;;5072331;28;20024;-60
2021/05/03 00:44:52;;;;;;;1.13;1.00;;;8.50;68.20;;;;;;5071798;28;20450;-60
2021/05/03 00:47:22;;;;;;;2.50;1.52;;;8.50;68.10;;;;;;5072281;28;20048;-60
2021/05/03 00:49:48;;;;;;;2.28;1.80;;;8.50;68.20;;;;;;5071544;28;20183;-60
2021/05/03 00:52:13;;;;;;;2.53;1.23;;;8.50;68.30;;;;;;5063951;28;20421;-59
2021/05/03 00:54:40;;;;;;;0.25;0.25;;;8.50;68.20;;;;;;5072092;28;20039;-60
2021/05/03 00:57:07;;;;;;;2.40;1.48;;;8.40;67.90;;;;;;5070803;28;20040;-60
2021/05/03 00:59:32;;;;;;;0.75;0.75;;;8.50;68.00;;;;;;5070635;28;20025;-59
2021/05/03 01:01:58;;;;;;;2.38;1.33;;;8.40;67.80;;;;;;5071390;28;20035;-60
2021/05/03 01:04:24;;;;;;;2.70;1.13;;;8.40;67.90;;;;;;5066287;28;20033;-60
2021/05/03 01:06:49;;;;;;;0.93;0.88;;;8.30;67.90;;;;;;5069157;28;20101;-60
2021/05/03 01:09:16;;;;;;;2.42;1.55;;;8.30;68.00;;;;;;5071291;28;20037;-60
2021/05/03 01:11:44;;;;;;;2.10;1.48;;;8.30;68.10;;;;;;5060071;28;20017;-60
2021/05/03 01:14:10;;;;;;;3.08;1.80;;;8.20;68.10;;;;;;5071824;28;20059;-59
2021/05/03 01:16:36;;;;;;;1.02;0.95;;;8.20;68.30;;;;;;5071685;28;20025;-60
2021/05/03 01:19:03;;;;;;;1.35;1.15;;;8.20;68.30;;;;;;5073043;28;20089;-59
2021/05/03 01:21:29;;;;;;;2.55;1.77;;;8.20;68.40;;;;;;5075354;28;20052;-59
2021/05/03 01:23:55;;;;;;;1.08;0.95;;;8.10;68.40;;;;;;5075412;28;20480;-60
2021/05/03 01:26:21;;;;;;;1.80;1.27;;;8.10;68.50;;;;;;5074660;28;20033;-60
2021/05/03 01:28:48;;;;;;;3.22;1.48;;;8.10;68.50;;;;;;5074837;28;20491;-60
2021/05/03 01:31:15;;;;;;;3.95;1.75;;;8.00;68.50;;;;;;5075285;28;20025;-60
2021/05/03 01:33:41;;;;;;;2.05;1.38;;;8.00;68.50;;;;;;5071420;28;20095;-59
2021/05/03 01:36:07;;;;;;;1.30;1.15;;;8.00;68.60;;;;;;5074691;28;20078;-59
2021/05/03 01:38:33;;;;;;;0.88;0.80;;;8.00;68.70;;;;;;5074722;28;20106;-59
2021/05/03 01:40:59;;;;;;;1.77;1.52;;;8.00;68.80;;;;;;5073975;28;20071;-59
2021/05/03 01:43:27;;;;;;;0.73;0.73;;;7.90;68.80;;;;;;5074898;28;20028;-59
2021/05/03 01:45:58;;;;;;;1.60;1.10;;;7.90;68.90;;;;;;5074644;28;20486;-60
2021/05/03 01:48:29;;;;;;;2.90;1.67;;;7.90;68.90;;;;;;5071751;28;20123;-59
2021/05/03 01:50:56;;;;;;;2.67;1.52;;;7.90;69.00;;;;;;5074890;28;20025;-60
2021/05/03 01:53:23;;;;;;;1.50;1.40;;;7.90;69.00;;;;;;5074088;28;20024;-59
2021/05/03 01:55:53;;;;;;;1.88;1.10;;;7.90;69.00;;;;;;5074732;28;20028;-60
2021/05/03 01:58:19;;;;;;;0.88;0.88;;;7.90;69.10;;;;;;5073889;28;20082;-59
2021/05/03 02:00:45;;;;;;;0.65;0.65;;;7.90;69.10;;;;;;5073884;28;20032;-60
2021/05/03 02:03:23;;;;;;;0.43;0.43;;;7.80;69.10;;;;;;5074844;28;20027;-60
2021/05/03 02:05:49;;;;;;;2.08;1.45;;;7.80;69.20;;;;;;5074904;28;20063;-60
2021/05/03 02:08:15;;;;;;;1.55;1.42;;;7.80;69.30;;;;;;5074030;28;20064;-59
2021/05/03 02:10:42;;;;;;;1.55;1.30;;;7.80;69.40;;;;;;5074955;28;20387;-60
2021/05/03 02:13:08;;;;;;;4.95;2.10;;;7.80;69.40;;;;;;5074661;28;20036;-59
2021/05/03 02:15:34;;;;;;;1.50;1.20;;;7.80;69.60;;;;;;5073933;28;20028;-60
2021/05/03 02:18:00;;;;;;;2.15;1.60;;;7.80;69.50;;;;;;5074760;28;20025;-60
2021/05/03 02:20:27;;;;;;;0.80;0.70;;;7.80;69.50;;;;;;5074340;28;20025;-60
2021/05/03 02:22:53;;;;;;;1.73;1.48;;;7.80;69.90;;;;;;5073803;28;20468;-60
2021/05/03 02:25:19;;;;;;;0.52;0.52;;;7.80;69.60;;;;;;5074530;28;20035;-60
2021/05/03 02:27:44;;;;;;;1.50;1.40;;;7.90;69.60;;;;;;5074345;28;20039;-60
2021/05/03 02:30:11;;;;;;;2.90;2.00;;;7.80;69.80;;;;;;5072575;28;20065;-60
2021/05/03 02:32:37;;;;;;;3.55;1.80;;;7.90;70.00;;;;;;5074277;28;20032;-60
2021/05/03 02:35:08;;;;;;;1.88;1.10;;;7.90;70.00;;;;;;5074495;28;20032;-59
2021/05/03 02:37:34;;;;;;;1.48;1.38;;;7.80;69.90;;;;;;5073991;28;20025;-60
2021/05/03 02:40:00;;;;;;;3.95;1.55;;;7.90;70.00;;;;;;5074364;28;20062;-60
2021/05/03 02:42:26;;;;;;;3.22;1.20;;;7.90;70.10;;;;;;5073182;28;20024;-60
2021/05/03 02:44:52;;;;;;;0.80;0.80;;;7.90;70.00;;;;;;5074043;28;20029;-60
2021/05/03 02:47:18;;;;;;;1.30;1.10;;;7.90;70.00;;;;;;5073394;28;20458;-59
2021/05/03 02:49:43;;;;;;;1.88;1.25;;;7.90;70.10;;;;;;5073360;28;20032;-59
2021/05/03 02:52:09;;;;;;;1.83;1.25;;;7.90;70.30;;;;;;5073930;28;20028;-59
2021/05/03 02:54:35;;;;;;;1.45;1.05;;;7.90;70.20;;;;;;5074039;28;20036;-60
2021/05/03 02:57:01;;;;;;;1.15;1.05;;;7.90;70.30;;;;;;5073138;28;20029;-60
2021/05/03 02:59:26;;;;;;;1.17;1.05;;;7.90;70.30;;;;;;5073483;28;20028;-59
2021/05/03 03:01:52;;;;;;;0.82;0.80;;;7.90;70.50;;;;;;5073674;28;20024;-60
2021/05/03 03:04:18;;;;;;;1.98;1.42;;;7.90;70.60;;;;;;5073224;28;20040;-60
2021/05/03 03:06:44;;;;;;;3.03;1.35;;;8.00;70.90;;;;;;5073761;28;20017;-60
2021/05/03 03:09:09;;;;;;;0.80;0.80;;;7.90;70.70;;;;;;5073502;28;20055;-60
2021/05/03 03:11:35;;;;;;;0.73;0.73;;;8.00;70.90;;;;;;5072829;28;20033;-59
2021/05/03 03:14:02;;;;;;;0.63;0.63;;;7.90;71.00;;;;;;5073671;28;20037;-59
2021/05/03 03:16:28;;;;;;;1.45;1.35;;;7.90;71.20;;;;;;5073302;28;20539;-60
2021/05/03 03:18:55;;;;;;;1.67;1.10;;;8.00;72.20;;;;;;5072971;28;20384;-60
2021/05/03 03:21:21;;;;;;;0.77;0.77;;;7.90;71.60;;;;;;5073406;28;20058;-59
2021/05/03 03:23:47;;;;;;;1.10;0.88;;;7.90;71.50;;;;;;5071953;28;20028;-59
2021/05/03 03:26:13;;;;;;;1.95;0.88;;;8.00;71.70;;;;;;5072693;28;20047;-59
2021/05/03 03:28:39;;;;;;;0.75;0.75;;;8.00;71.80;;;;;;5072969;28;20093;-59
2021/05/03 03:31:05;;;;;;;0.73;0.73;;;8.00;71.80;;;;;;5073193;28;20070;-59
2021/05/03 03:33:31;;;;;;;1.95;1.48;;;8.00;72.00;;;;;;5072525;28;20353;-60
2021/05/03 03:35:57;;;;;;;2.00;1.65;;;8.00;72.00;;;;;;5073314;28;20028;-60
2021/05/03 03:38:23;;;;;;;1.23;1.13;;;8.00;72.10;;;;;;5073104;28;20567;-60
2021/05/03 03:40:48;;;;;;;2.03;1.45;;;8.00;72.00;;;;;;5072075;28;20115;-59
2021/05/03 03:43:14;;;;;;;3.03;1.40;;;8.00;72.00;;;;;;5072231;28;20048;-60
2021/05/03 03:45:40;;;;;;;4.78;2.17;;;8.10;72.00;;;;;;5072071;28;20012;-60
2021/05/03 03:48:07;;;;;;;3.03;1.70;;;8.10;72.10;;;;;;5072854;28;20056;-59
2021/05/03 03:50:34;;;;;;;2.90;2.00;;;8.10;72.10;;;;;;5072671;28;20036;-60
2021/05/03 03:52:59;;;;;;;3.90;1.77;;;8.10;72.10;;;;;;5072173;28;20081;-59
2021/05/03 03:55:29;;;;;;;1.00;0.93;;;8.20;72.10;;;;;;5072978;28;20032;-60
2021/05/03 03:57:54;;;;;;;1.90;1.45;;;8.10;71.90;;;;;;5072846;28;20042;-59
2021/05/03 04:00:21;;;;;;;1.67;1.35;;;8.20;71.90;;;;;;5071910;28;20029;-60
2021/05/03 04:02:47;;;;;;;4.75;0.82;;;8.10;72.00;;;;;;5072670;28;20032;-60
2021/05/03 04:21:14;;;;;;;1.75;1.45;;;8.20;72.50;;;;;;5071892;28;20036;-60
2021/05/03 04:26:20;;;;;;;4.95;1.55;;;8.20;72.80;;;;;;5072710;28;20395;-60
2021/05/03 04:28:48;;;;;;;0.93;0.85;;;8.20;72.70;;;;;;5071656;28;20033;-59
2021/05/03 04:31:14;;;;;;;2.75;1.75;;;8.20;72.90;;;;;;5072764;28;20059;-60
2021/05/03 04:33:40;;;;;;;1.75;1.45;;;8.20;73.30;;;;;;5072231;28;20086;-60
2021/05/03 04:36:06;;;;;;;1.77;1.35;;;8.20;73.40;;;;;;5072084;28;20028;-60
2021/05/03 04:38:32;;;;;;;3.33;1.77;;;8.20;73.40;;;;;;5072186;28;20530;-60
2021/05/03 04:40:58;;;;;;;5.15;2.25;;;8.20;73.50;;;;;;5072503;28;20028;-59
2021/05/03 04:43:24;;;;;;;1.55;1.38;;;8.20;73.60;;;;;;5071820;28;20029;-60
2021/05/03 04:45:49;;;;;;;3.60;1.70;;;8.20;73.40;;;;;;5072187;28;20119;-60
2021/05/03 04:48:16;;;;;;;4.05;2.55;;;8.20;73.40;;;;;;5072063;28;20131;-59
2021/05/03 04:50:42;;;;;;;6.03;2.08;;;8.20;73.60;;;;;;5071548;28;20129;-60
2021/05/03 04:53:08;;;;;;;1.85;1.38;;;8.30;73.70;;;;;;5073384;28;20032;-59
2021/05/03 04:55:34;;;;;;;2.97;1.83;;;8.30;73.40;;;;;;5076234;28;20506;-60
2021/05/03 04:58:03;;;;;;;4.47;2.78;;;8.40;73.30;;;;;;5075412;28;20079;-60
2021/05/03 05:00:29;;;;;;;6.30;2.25;;;8.40;73.50;;;;;;5075874;28;20040;-60
2021/05/03 05:02:54;;;;;;;4.15;2.53;;;8.40;73.40;;;;;;5075118;28;20427;-60
2021/05/03 05:05:20;;;;;;;2.70;1.90;;;8.50;73.40;;;;;;5076113;28;20028;-60
2021/05/03 05:07:47;;;;;;;4.47;2.20;;;8.50;73.30;;;;;;5075946;28;20476;-60
2021/05/03 05:10:13;;;;;;;4.72;2.58;;;8.50;73.10;;;;;;5075096;28;20143;-59
2021/05/03 05:12:38;;;;;;;1.08;0.77;;;8.50;72.80;;;;;;5075905;28;20064;-60
2021/05/03 05:15:05;;;;;;;1.63;1.20;;;8.60;72.70;;;;;;5075701;28;20028;-60
2021/05/03 05:17:32;;;;;;;6.57;1.75;;;8.50;73.00;;;;;;5074966;28;20039;-60
2021/05/03 05:19:58;;;;;;;1.48;1.38;;;8.50;73.40;;;;;;5075823;28;20078;-59
2021/05/03 05:22:24;;;;;;;2.25;1.05;;;8.40;73.90;;;;;;5075689;28;20067;-60
2021/05/03 05:24:50;;;;;;;3.00;2.00;;;8.40;74.20;;;;;;5074957;28;20033;-60
2021/05/03 05:27:16;;;;;;;4.28;2.35;;;8.30;74.50;;;;;;5075485;28;20050;-59
2021/05/03 05:29:41;;;;;;;4.32;2.65;;;8.30;74.80;;;;;;5075500;28;20395;-60
2021/05/03 05:32:07;;;;;;;5.05;1.75;;;8.30;74.90;;;;;;5073384;28;20025;-60
2021/05/03 05:34:33;;;;;;;2.95;1.92;;;8.30;75.20;;;;;;5075683;28;20029;-60
2021/05/03 05:36:59;;;;;;;3.30;2.08;;;8.30;75.40;;;;;;5075044;28;20115;-59
2021/05/03 05:39:24;;;;;;;8.35;1.35;;;8.30;75.50;;;;;;5068659;28;20040;-59
2021/05/03 05:41:50;;;;;;;5.07;2.85;;;8.30;75.70;;;;;;5074856;28;20101;-59
2021/05/03 05:44:16;;;;;;;2.40;1.90;;;8.30;75.90;;;;;;5074741;28;20023;-59
2021/05/03 05:46:44;;;;;;;2.97;1.63;;;8.30;76.00;;;;;;5063462;28;20044;-60
2021/05/03 05:49:09;;;;;;;0.85;0.82;;;8.30;76.20;;;;;;5071550;28;20067;-59
2021/05/03 05:51:35;;;;;;;1.95;0.98;;;8.30;76.30;;;;;;5074976;28;20114;-60
2021/05/03 05:54:01;;;;;;;0.88;0.88;;;8.20;76.30;;;;;;5074276;28;20028;-60
2021/05/03 05:56:26;;;;;;;2.90;2.05;;;8.20;76.50;;;;;;5074700;28;21575;-60
2021/05/03 05:58:52;;;;;;;2.13;1.70;;;8.20;76.50;;;;;;5074763;28;20484;-62
2021/05/03 06:01:18;;;;;;;0.85;0.85;;;8.20;76.60;;;;;;5073749;28;20024;-61
2021/05/03 06:03:43;;;;;;;3.03;1.67;;;8.20;76.80;;;;;;5066121;28;20031;-59
2021/05/03 06:06:09;;;;;;;2.22;1.60;;;8.20;76.80;;;;;;5064380;28;20391;-60
2021/05/03 06:08:35;;;;;;;2.30;1.55;;;8.20;76.80;;;;;;5073801;28;20491;-60
2021/05/03 06:11:02;;;;;;;2.03;1.55;;;8.20;76.80;;;;;;5085107;28;20198;-60
2021/05/03 06:13:28;;;;;;;4.10;1.13;;;8.20;76.90;;;;;;5066732;28;20030;-60
2021/05/03 06:15:55;;;;;;;2.45;0.88;;;8.20;76.90;;;;;;5074342;28;20029;-60
2021/05/03 06:18:23;;;;;;;2.28;1.48;;;8.20;76.90;;;;;;5070437;28;20056;-60
2021/05/03 06:20:49;;;;;;;2.28;1.38;;;8.20;76.90;;;;;;5062290;28;20039;-60
2021/05/03 06:23:15;;;;;;;2.33;1.40;;;8.30;77.00;;;;;;5068432;28;20037;-59
2021/05/03 06:25:41;;;;;;;3.03;2.30;;;8.30;76.90;;;;;;5065406;28;20043;-59
2021/05/03 06:28:07;;;;;;;3.92;2.70;;;8.30;77.10;;;;;;5072702;28;20535;-60
2021/05/03 06:30:35;;;;;;;4.10;2.40;;;8.30;77.00;;;;;;5073719;28;20021;-59
2021/05/03 06:33:01;;;;;;;2.67;1.73;;;8.30;77.00;;;;;;5073843;28;20029;-60
2021/05/03 06:35:27;;;;;;;4.15;2.40;;;8.30;76.60;;;;;;5072992;28;20032;-59
2021/05/03 06:37:53;;;;;;;3.15;2.22;;;8.40;77.10;;;;;;5073814;28;20039;-59
2021/05/03 06:40:19;;;;;;;1.23;0.57;;;8.40;76.50;;;;;;5074008;28;20028;-60
2021/05/03 06:42:49;;;;;;;4.00;2.30;;;8.40;76.30;;;;;;5073350;28;20495;-60
2021/05/03 06:45:17;;;;;;;2.90;1.27;;;8.50;76.10;;;;;;5059350;28;20029;-60
2021/05/03 06:47:45;;;;;;;8.60;0.63;;;8.50;76.00;;;;;;5070146;28;20037;-60
2021/05/03 06:50:13;;;;;;;1.48;1.13;;;8.50;75.80;;;;;;5072714;28;20041;-60
2021/05/03 06:52:40;;;;;;;6.78;2.65;;;8.60;75.70;;;;;;5062225;28;20033;-65
2021/05/03 06:55:06;;;;;;;4.00;2.70;;;8.60;75.80;;;;;;5073484;28;20032;-60
2021/05/03 06:57:32;;;;;;;1.25;0.93;;;8.60;75.90;;;;;;5072602;28;20024;-61
2021/05/03 06:59:59;;;;;;;4.68;2.33;;;8.60;75.60;;;;;;5065432;28;20078;-59
2021/05/03 07:02:25;;;;;;;4.93;3.10;;;8.70;75.50;;;;;;5069150;28;20032;-59
2021/05/03 07:04:51;;;;;;;4.45;2.80;;;8.70;75.70;;;;;;5071277;28;20537;-59
2021/05/03 07:07:17;;;;;;;4.25;2.17;;;8.70;75.70;;;;;;5071634;28;20056;-60
2021/05/03 07:09:46;;;;;;;3.75;2.42;;;8.80;75.80;;;;;;5070118;28;20048;-59
2021/05/03 07:12:21;;;;;;;4.65;2.40;;;8.80;75.60;;;;;;5071927;28;20031;-59
2021/05/03 07:14:48;;;;;;;1.98;1.48;;;8.90;75.70;;;;;;5070964;28;20028;-59
2021/05/03 07:17:14;;;;;;;2.40;1.85;;;8.90;75.20;;;;;;5071429;28;20103;-60
2021/05/03 07:19:39;;;;;;;2.72;1.77;;;8.90;75.30;;;;;;5069938;28;20055;-59
2021/05/03 07:22:07;;;;;;;2.97;2.10;;;8.90;75.30;;;;;;5059435;28;20416;-59
2021/05/03 07:24:35;;;;;;;3.72;2.40;;;8.90;75.30;;;;;;5070092;28;20139;-60
2021/05/03 07:27:00;;;;;;;3.45;1.80;;;8.90;75.40;;;;;;5071910;28;20025;-60
2021/05/03 07:29:26;;;;;;;3.85;2.75;;;9.00;75.10;;;;;;5071757;28;20102;-60
2021/05/03 07:31:52;;;;;;;3.17;2.20;;;9.00;75.10;;;;;;5069793;28;20052;-60
2021/05/03 07:34:17;;;;;;;0.73;0.70;;;9.10;75.30;;;;;;5071286;28;20520;-60
2021/05/03 07:36:44;;;;;;;2.22;1.55;;;9.10;74.80;;;;;;5072084;28;20013;-60
2021/05/03 07:39:10;;;;;;;4.75;2.92;;;9.10;74.70;;;;;;5061792;28;20032;-63
2021/05/03 07:41:37;;;;;;;4.38;2.97;;;9.10;74.40;;;;;;5072225;28;20111;-60
2021/05/03 07:44:03;;;;;;;3.72;2.50;;;9.10;74.60;;;;;;5069234;28;20383;-60
2021/05/03 07:46:29;;;;;;;5.30;2.47;;;9.10;74.70;;;;;;5069546;28;20025;-60
2021/05/03 07:48:59;;;;;;;5.85;3.33;;;9.20;74.50;;;;;;5068735;28;20470;-61
2021/05/03 07:51:25;;;;;;;7.35;3.88;;;9.30;74.70;;;;;;5070512;28;20091;-60
2021/05/03 07:53:52;;;;;;;8.73;3.55;;;9.30;74.70;;;;;;5069145;28;20032;-60
2021/05/03 07:56:18;;;;;;;5.97;3.72;;;9.40;74.90;;;;;;5069007;28;20024;-60
2021/05/03 07:58:46;;;;;;;10.20;4.13;;;9.40;74.70;;;;;;5069501;28;20024;-60
2021/05/03 08:01:12;;;;;;;6.28;4.22;;;9.40;74.60;;;;;;5069691;28;20086;-60
2021/05/03 08:03:39;;;;;;;6.82;3.72;;;9.50;74.60;;;;;;5070101;28;20035;-60
2021/05/03 08:06:08;;;;;;;6.68;2.95;;;9.60;74.10;;;;;;5069170;28;20135;-60
2021/05/03 08:08:33;;;;;;;6.40;3.72;;;9.60;74.10;;;;;;5070293;28;20033;-61
2021/05/03 08:11:00;;;;;;;6.88;4.13;;;9.60;73.90;;;;;;5068329;28;20054;-60
2021/05/03 08:13:28;;;;;;;9.30;4.63;;;9.60;73.90;;;;;;5069547;28;20086;-60
2021/05/03 08:15:56;;;;;;;6.60;3.45;;;9.70;74.20;;;;;;5069490;28;20491;-60
2021/05/03 08:18:21;;;;;;;10.35;6.15;;;9.70;73.60;;;;;;5069491;28;20426;-60
2021/05/03 08:20:47;;;;;;;9.98;4.53;;;9.70;73.80;;;;;;5068081;28;20028;-60
2021/05/03 08:23:18;;;;;;;8.40;4.10;;;9.70;73.90;;;;;;5069786;28;20155;-60
2021/05/03 08:25:48;;;;;;;9.65;5.35;;;9.60;73.80;;;;;;5069600;28;20475;-60
2021/05/03 08:28:15;;;;;;;5.07;3.17;;;9.60;74.10;;;;;;5067973;28;20028;-60
2021/05/03 08:30:41;;;;;;;6.78;4.10;;;9.60;74.10;;;;;;5072283;28;20060;-62
2021/05/03 08:33:07;;;;;;;2.40;1.77;;;9.60;74.50;;;;;;5071352;28;20102;-60
2021/05/03 08:35:33;;;;;;;14.05;6.20;;;9.60;74.70;;;;;;5072870;28;20119;-60
2021/05/03 08:38:00;;;;;;;9.25;5.40;;;9.50;75.00;;;;;;5070157;28;20832;-60
2021/05/03 08:40:25;;;;;;;10.07;5.70;;;9.50;75.10;;;;;;5070786;28;20078;-60
2021/05/03 08:42:51;;;;;;;8.43;5.03;;;9.60;76.00;;;;;;5064276;28;20036;-60
2021/05/03 08:45:17;;;;;;;5.72;3.00;;;9.60;75.30;;;;;;5072783;28;20029;-60
2021/05/03 08:47:56;;;;;;;3.55;2.20;;;9.60;75.00;;;;;;5072574;28;20051;-60
2021/05/03 08:50:31;;;;;;;5.63;3.50;;;9.70;75.20;;;;;;5073632;28;20032;-60
2021/05/03 08:52:58;;;;;;;9.75;5.90;;;9.60;75.80;;;;;;5073116;28;20519;-60
2021/05/03 08:55:23;;;;;;;9.50;5.35;;;9.70;76.30;;;;;;5070211;28;20033;-60
2021/05/03 08:57:49;;;;;;;19.42;11.52;;;9.70;76.30;;;;;;5074207;28;20495;-60
2021/05/03 09:00:16;;;;;;;12.05;4.72;;;9.70;76.50;;;;;;5072836;28;20060;-60
2021/05/03 09:02:47;;;;;;;21.88;11.65;;;9.80;76.40;;;;;;5066077;28;20024;-60
2021/05/03 09:05:13;;;;;;;21.70;8.40;;;9.80;76.70;;;;;;5074634;28;20021;-60
2021/05/03 09:07:50;;;;;;;16.55;10.50;;;9.90;76.40;;;;;;5074750;28;20085;-61
2021/05/03 09:10:18;;;;;;;19.58;10.77;;;10.00;76.50;;;;;;5073970;28;20040;-61
2021/05/03 09:12:44;;;;;;;16.02;8.80;;;10.10;76.40;;;;;;5060186;28;20472;-61
2021/05/03 09:15:10;;;;;;;15.85;8.75;;;10.10;76.10;;;;;;5072702;28;20024;-60
2021/05/03 09:17:45;;;;;;;15.85;7.85;;;10.20;75.80;;;;;;5073923;28;20047;-60
2021/05/03 09:20:30;;;;;;;9.48;2.75;;;10.20;75.50;;;;;;5074229;28;20028;-60
2021/05/03 09:25:41;;;;;;;5.57;3.42;;;10.30;75.30;;;;;;5068597;28;20052;-60
2021/05/03 09:28:28;;;;;;;12.15;6.10;;;10.30;74.90;;;;;;5074448;28;20036;-60
2021/05/03 09:30:56;;;;;;;20.73;10.38;;;10.30;75.10;;;;;;5069892;28;20081;-70
2021/05/03 09:33:38;;;;;;;11.57;6.47;;;10.30;75.60;;;;;;5063884;28;20043;-70
2021/05/03 09:36:13;;;;;;;11.65;5.18;;;10.30;75.80;;;;;;5065601;28;20070;-66
2021/05/03 09:38:40;;;;;;;9.00;3.67;;;10.30;76.50;;;;;;5072916;28;20070;-61
2021/05/03 09:41:10;;;;;;;16.20;7.20;;;10.20;76.90;;;;;;5068039;28;20384;-64
2021/05/03 09:43:40;;;;;;;4.93;1.90;;;10.20;77.10;;;;;;5073110;28;20056;-67
2021/05/03 09:46:31;;;;;;;6.70;4.28;;;10.10;76.90;;;;;;5072595;28;20028;-64
2021/05/03 09:49:00;;;;;;;8.35;4.60;;;10.10;76.90;;;;;;5065708;28;20032;-65
2021/05/03 09:51:35;;;;;;;7.68;4.13;;;10.20;76.90;;;;;;5073348;28;20024;-68
2021/05/03 09:54:10;;;;;;;5.00;2.42;;;10.20;76.90;;;;;;5071910;28;20043;-62
2021/05/03 09:57:11;;;;;;;4.35;2.25;;;10.20;77.40;;;;;;5067687;28;20029;-61
2021/05/03 09:59:41;;;;;;;4.90;2.58;;;10.30;76.90;;;;;;5031155;28;20025;-61
2021/05/03 10:07:35;;;;;;;7.88;3.85;;;10.30;77.90;;;;;;5073694;28;20024;-60
2021/05/03 10:12:35;;;;;;;10.15;5.80;;;10.30;79.10;;;;;;5072318;28;20027;-60
2021/05/03 10:15:05;;;;;;;8.50;4.43;;;10.30;79.60;;;;;;5073577;28;20040;-61
2021/05/03 10:17:32;;;;;;;4.15;2.03;;;10.40;80.10;;;;;;5074159;28;20032;-60
2021/05/03 10:19:59;;;;;;;6.32;3.42;;;10.40;80.10;;;;;;5073198;28;20036;-61
2021/05/03 10:22:26;;;;;;;6.45;3.55;;;10.30;80.30;;;;;;5072890;28;20035;-61
2021/05/03 10:24:55;;;;;;;8.07;3.63;;;10.40;80.10;;;;;;5069800;28;20036;-63
2021/05/03 10:27:42;;;;;;;4.70;2.88;;;10.40;80.50;;;;;;5070357;28;20043;-63
2021/05/03 10:30:12;;;;;;;7.03;2.50;;;10.50;80.90;;;;;;5071838;28;20040;-61
2021/05/03 10:32:39;;;;;;;5.95;3.72;;;10.50;80.90;;;;;;5072042;28;20035;-61
2021/05/03 10:35:07;;;;;;;5.32;3.40;;;10.60;81.00;;;;;;5071355;28;20039;-61
2021/05/03 10:37:42;;;;;;;4.25;2.45;;;10.60;81.30;;;;;;5072189;28;20038;-61
2021/05/03 10:40:17;;;;;;;15.48;6.60;;;10.70;81.00;;;;;;5070958;28;20021;-61
2021/05/03 10:43:01;;;;;;;7.10;4.22;;;10.80;81.20;;;;;;5071054;28;20090;-62
2021/05/03 10:45:41;;;;;;;13.68;7.53;;;10.70;81.10;;;;;;5071864;28;20028;-61
2021/05/03 10:48:34;;;;;;;11.15;6.95;;;10.80;81.00;;;;;;5068457;28;20143;-61
2021/05/03 10:51:01;;;;;;;9.82;5.32;;;10.80;80.80;;;;;;5070596;28;20044;-61
2021/05/03 10:55:58;;;;;;;24.73;6.00;;;10.70;80.40;;;;;;5063621;28;20035;-61
2021/05/03 10:58:24;;;;;;;15.80;8.10;;;10.80;80.40;;;;;;5077487;28;20468;-61
2021/05/03 11:01:04;;;;;;;16.95;9.63;;;10.80;80.50;;;;;;5072317;28;20028;-61
2021/05/03 11:03:55;;;;;;;14.05;7.47;;;10.80;80.90;;;;;;5071609;28;20028;-61
2021/05/03 11:06:36;;;;;;;19.58;10.20;;;10.90;81.10;;;;;;5072444;28;20127;-61
2021/05/03 11:09:28;;;;;;;18.48;10.30;;;10.90;81.80;;;;;;5071316;28;20127;-61
2021/05/03 11:11:55;;;;;;;13.38;8.85;;;10.90;82.20;;;;;;5072307;28;20025;-61
2021/05/03 11:14:22;;;;;;;21.88;13.85;;;10.90;82.70;;;;;;5072149;28;20120;-65
2021/05/03 11:17:03;;;;;;;11.57;5.13;;;10.90;82.80;;;;;;5071347;28;20542;-61
2021/05/03 11:22:25;;;;;;;15.55;8.70;;;11.10;82.60;;;;;;5068335;28;20093;-61
2021/05/03 11:24:58;;;;;;;17.60;9.30;;;11.10;82.40;;;;;;5071615;28;20025;-62
2021/05/03 11:27:43;;;;;;;;;;;11.20;82.40;;;;;;5070694;28;20052;-61
2021/05/03 11:30:16;;;;;;;14.13;8.02;;;11.20;82.10;;;;;;5071844;28;19917;-61
2021/05/03 11:32:42;;;;;;;16.15;8.43;;;11.30;82.00;;;;;;5064343;28;20111;-61
2021/05/03 11:46:26;;;;;;;12.98;7.20;;;11.40;82.00;;;;;;5071293;28;20025;-65
2021/05/03 11:48:55;;;;;;;24.60;12.05;;;11.50;82.00;;;;;;5071076;28;20048;-64
2021/05/03 11:51:21;;;;;;;16.80;7.63;;;11.50;82.00;;;;;;5071162;28;20021;-64
2021/05/03 11:53:47;;;;;;;16.52;9.30;;;11.60;82.20;;;;;;5071349;28;20050;-64
2021/05/03 11:56:19;;;;;;;15.95;8.57;;;11.60;82.20;;;;;;5071909;28;20054;-64
2021/05/03 11:58:50;;;;;;;18.15;9.82;;;11.70;82.30;;;;;;5070766;28;20021;-64
2021/05/03 12:01:18;;;;;;;16.42;7.60;;;11.70;82.20;;;;;;5070790;28;20369;-64
2021/05/03 12:03:46;;;;;;;11.50;5.22;;;11.70;82.00;;;;;;5070209;28;20028;-64
2021/05/03 12:06:33;;;;;;;19.83;8.13;;;11.80;82.10;;;;;;5070869;28;20028;-61
2021/05/03 12:09:13;;;;;;;15.00;8.50;;;11.80;82.00;;;;;;5070740;28;20064;-61
2021/05/03 12:11:53;;;;;;;12.55;6.15;;;11.80;81.90;;;;;;5063432;28;20112;-62
2021/05/03 12:14:19;;;;;;;10.60;6.60;;;11.90;81.90;;;;;;5071330;28;20087;-61
2021/05/03 12:16:44;;;;;;;12.48;7.10;;;11.90;82.40;;;;;;5071247;28;20085;-62
2021/05/03 12:19:20;;;;;;;12.40;6.28;;;12.00;81.60;;;;;;5070825;28;20392;-62
2021/05/03 12:22:00;;;;;;;14.70;6.78;;;12.00;81.30;;;;;;5070802;28;20407;-61
2021/05/03 12:24:34;;;;;;;8.27;4.95;;;12.10;81.00;;;;;;5065143;28;20477;-61
2021/05/03 12:27:00;;;;;;;8.68;4.25;;;12.10;80.70;;;;;;5068190;28;20056;-61
2021/05/03 12:29:27;;;;;;;10.40;6.85;;;12.20;80.40;;;;;;5071241;28;20091;-61
2021/05/03 12:31:54;;;;;;;12.05;6.13;;;12.20;80.00;;;;;;5067770;28;20033;-61
2021/05/03 12:34:22;;;;;;;9.48;4.57;;;12.20;79.40;;;;;;5070354;28;20060;-61
2021/05/03 12:37:14;;;;;;;11.98;6.97;;;12.20;78.90;;;;;;5070906;28;20020;-61
2021/05/03 12:40:04;;;;;;;4.55;2.92;;;12.30;78.80;;;;;;5053812;28;20041;-61
2021/05/03 12:42:38;;;;;;;6.75;3.88;;;12.30;79.20;;;;;;5070721;28;20025;-62
2021/05/03 12:45:36;;;;;;;5.75;4.40;;;12.30;79.50;;;;;;5071274;28;20115;-64
2021/05/03 12:53:32;;;;;;;10.40;4.15;;;12.30;79.40;;;;;;5071656;28;20040;-63
2021/05/03 13:04:30;;;;;;;7.78;3.10;;;12.50;77.90;;;;;;5071459;28;20123;-62
2021/05/03 13:09:37;;;;;;;3.78;2.03;;;12.60;77.80;;;;;;5070868;28;20059;-63
2021/05/03 13:29:05;;;;;;;;;;;12.70;77.80;;;;;;5074341;28;20040;-62
2021/05/03 13:31:32;;;;;;;5.05;2.97;;;12.70;77.70;;;;;;5074173;28;20371;-62
2021/05/03 13:33:59;;;;;;;7.30;4.38;;;12.70;77.70;;;;;;5073889;28;20031;-62
2021/05/03 13:36:28;;;;;;;10.77;4.95;;;12.70;78.00;;;;;;5064853;28;20017;-62
2021/05/03 13:38:55;;;;;;;6.72;4.18;;;12.70;78.40;;;;;;5074064;28;20089;-62
2021/05/03 13:41:21;;;;;;;5.82;4.10;;;12.70;78.40;;;;;;5074340;28;20119;-62
2021/05/03 13:43:47;;;;;;;7.15;4.38;;;12.80;77.90;;;;;;5073587;28;20151;-62
2021/05/03 13:46:12;;;;;;;9.68;3.92;;;12.70;77.50;;;;;;5074732;28;20468;-61
2021/05/03 13:48:39;;;;;;;4.78;2.83;;;12.70;77.80;;;;;;5073931;28;20125;-62
2021/05/03 13:51:07;;;;;;;6.88;3.97;;;12.80;78.10;;;;;;5060474;28;20025;-61
2021/05/03 13:53:37;;;;;;;7.05;2.83;;;12.80;78.00;;;;;;5074462;28;20047;-61
2021/05/03 13:56:04;;;;;;;7.32;3.22;;;12.90;76.90;;;;;;5074003;28;20042;-61
2021/05/03 13:58:33;;;;;;;2.63;1.63;;;12.80;75.90;;;;;;5073898;28;20028;-62
2021/05/03 14:00:59;;;;;;;3.75;2.28;;;12.90;75.60;;;;;;5073883;28;20371;-61
2021/05/03 14:03:25;;;;;;;5.07;2.80;;;13.00;75.70;;;;;;5074365;28;20036;-62
2021/05/03 14:05:52;;;;;;;3.92;2.83;;;13.00;76.10;;;;;;5073437;28;20043;-62
2021/05/03 14:08:17;;;;;;;7.05;3.03;;;13.00;75.80;;;;;;5072794;28;20028;-62
2021/05/03 14:10:43;;;;;;;7.10;2.53;;;13.00;75.50;;;;;;5073879;28;20089;-61
2021/05/03 14:13:09;;;;;;;5.50;3.30;;;13.10;75.70;;;;;;5073239;28;20047;-61
2021/05/03 14:15:37;;;;;;;4.95;3.10;;;13.10;75.70;;;;;;5069841;28;20044;-62
2021/05/03 14:18:03;;;;;;;6.18;3.05;;;13.10;74.40;;;;;;5073538;28;20033;-62